Kezdőlap
METAR-TAF:

METAR-TAF

Repülőterek :

Pekingi nemzetközi repülőtér

Peking, Kína

földrajzi szélesség: 39-56N, földrajzi hosszúság: 116-17E, magasság: 55 m

Jelenlegi meteorológiai megfigyelések

A jelentés 20 perccel ezelõtt készült, 06:00 UTC
Déli szél 6 kt, délkeleti és délnyugati között változik
Hőmérséklet 21°C
Páratartalom 43%
Légköri nyomás 1015 hPa
Látótávolság 10 km, vagy több
felhőtlen 1500 m magasságban, és nincs gomolyfelhõ

METAR: ZBAA 300600Z 18003MPS 140V220 CAVOK 21/08 Q1015 NOSIG

Idő: 14:20 (06:20 UTC)

Előrejelzés

A jelentés 3 órával és 19 perccel ezelõtt készült, 03:01 UTC
Az előrejelzés 30-én 06 óra UTC és 01-én 06 óra UTC között érvényes
Déli szél 8 kt
Látótávolság: 6000 m
30-én 17 óra UTC és 30-én 23 óra UTC között ideiglenes
Látótávolság: 2800 m
enyhe záporok

TAF: ZBAA 300301Z 3006/0106 18004MPS 6000 NSC TX22/3007Z TN10/3021Z TEMPO 3017/3023 2800 -SHRA

Meteorológiai megfigyelések és előrejelzések több, mint 4000 repülőtéren (METAR és TAF jelentéseket).

A térképen piros és sárga pontok jelzik az elérhető meteorológiai állomásokat.

Mozgassa az egeret a pont fölött, hogy megjelenjen az állomás neve.

Azután kattintson az időjárási megfigyelések és előrejelzések megtekintéséhez.

A térkép megváltoztatása: kattintson a fekete keresztel jelölt zöld gombra ráközelítéshez, a vonallal jelölt zöld gombra távolításhoz, vagy a zöld nyilakra a szomszédos térképek eléréséhez.


METAR-TAF: